sensor_id;sensor_type;location;lat;lon;timestamp;P1;durP1;ratioP1;P2;durP2;ratioP2
59986;SDS011;46181;51.498;5.392;2023-07-16T00:03:15;0.044;;;0.044;;
59986;SDS011;46181;51.498;5.392;2023-07-16T00:07:45;0.2;;;0.2;;
59986;SDS011;46181;51.498;5.392;2023-07-16T00:12:15;0.032;;;0.032;;
59986;SDS011;46181;51.498;5.392;2023-07-16T00:16:45;0.1;;;0.1;;
59986;SDS011;46181;51.498;5.392;2023-07-16T00:21:15;0.024;;;0.024;;
59986;SDS011;46181;51.498;5.392;2023-07-16T00:25:45;0.244;;;0.1;;
59986;SDS011;46181;51.498;5.392;2023-07-16T00:30:15;0;;;0;;
59986;SDS011;46181;51.498;5.392;2023-07-16T00:34:45;0.056;;;0.056;;
59986;SDS011;46181;51.498;5.392;2023-07-16T00:39:15;0.18;;;0.18;;
59986;SDS011;46181;51.498;5.392;2023-07-16T00:43:45;0.108;;;0.108;;
59986;SDS011;46181;51.498;5.392;2023-07-16T00:48:15;0.108;;;0.1;;
59986;SDS011;46181;51.498;5.392;2023-07-16T00:52:45;0.1;;;0.1;;
59986;SDS011;46181;51.498;5.392;2023-07-16T00:57:15;0.08;;;0.08;;
59986;SDS011;46181;51.498;5.392;2023-07-16T01:01:45;0.1;;;0.1;;
59986;SDS011;46181;51.498;5.392;2023-07-16T01:06:15;0;;;0;;
59986;SDS011;46181;51.498;5.392;2023-07-16T01:10:45;0.1;;;0.1;;
59986;SDS011;46181;51.498;5.392;2023-07-16T01:15:15;0.1;;;0.1;;
59986;SDS011;46181;51.498;5.392;2023-07-16T01:19:45;0.1;;;0.1;;
59986;SDS011;46181;51.498;5.392;2023-07-16T01:24:19;7.283999;;;3.012;;
59986;SDS011;46181;51.498;5.392;2023-07-16T01:28:51;11.168;;;4.372001;;
59986;SDS011;46181;51.498;5.392;2023-07-16T01:33:15;9.044002;;;3.611999;;
59986;SDS011;46181;51.498;5.392;2023-07-16T01:37:45;8.067999;;;2.944001;;
59986;SDS011;46181;51.498;5.392;2023-07-16T01:42:15;6.003999;;;2.252;;
59986;SDS011;46181;51.498;5.392;2023-07-16T01:46:45;7.784;;;4.304;;
59986;SDS011;46181;51.498;5.392;2023-07-16T01:51:15;7.592001;;;4.844;;
59986;SDS011;46181;51.498;5.392;2023-07-16T01:55:45;7.72;;;3.78;;
59986;SDS011;46181;51.498;5.392;2023-07-16T02:00:15;8.096;;;3.288;;
59986;SDS011;46181;51.498;5.392;2023-07-16T02:04:45;6.544;;;2.576;;
59986;SDS011;46181;51.498;5.392;2023-07-16T02:09:15;7.624;;;2.648;;
59986;SDS011;46181;51.498;5.392;2023-07-16T02:13:45;6.364001;;;2.460001;;
59986;SDS011;46181;51.498;5.392;2023-07-16T02:18:15;7.716001;;;2.604001;;
59986;SDS011;46181;51.498;5.392;2023-07-16T02:22:45;6.303999;;;2.336;;
59986;SDS011;46181;51.498;5.392;2023-07-16T02:27:15;6.06;;;2.168;;
59986;SDS011;46181;51.498;5.392;2023-07-16T02:31:45;5.708;;;2.579999;;
59986;SDS011;46181;51.498;5.392;2023-07-16T02:36:15;5.760001;;;2.676;;
59986;SDS011;46181;51.498;5.392;2023-07-16T02:40:46;7.052001;;;2.34;;
59986;SDS011;46181;51.498;5.392;2023-07-16T02:45:15;9.840001;;;2.599999;;
59986;SDS011;46181;51.498;5.392;2023-07-16T02:49:45;6.119999;;;2.556;;
59986;SDS011;46181;51.498;5.392;2023-07-16T02:54:15;5.744;;;2.008;;
59986;SDS011;46181;51.498;5.392;2023-07-16T02:58:45;6.516;;;2.34;;
59986;SDS011;46181;51.498;5.392;2023-07-16T03:03:15;6.771999;;;2.372001;;
59986;SDS011;46181;51.498;5.392;2023-07-16T03:07:45;7.159999;;;2.308;;
59986;SDS011;46181;51.498;5.392;2023-07-16T03:12:15;13.148;;;3.072;;
59986;SDS011;46181;51.498;5.392;2023-07-16T03:16:45;6.988;;;2.608;;
59986;SDS011;46181;51.498;5.392;2023-07-16T03:21:15;7.068;;;2.44;;
59986;SDS011;46181;51.498;5.392;2023-07-16T03:25:45;9.552;;;2.704001;;
59986;SDS011;46181;51.498;5.392;2023-07-16T03:30:15;6.636;;;2.512;;
59986;SDS011;46181;51.498;5.392;2023-07-16T03:34:45;9.16;;;2.952;;
59986;SDS011;46181;51.498;5.392;2023-07-16T03:39:15;7.168;;;2.876;;
59986;SDS011;46181;51.498;5.392;2023-07-16T03:43:45;5.6;;;2.78;;
59986;SDS011;46181;51.498;5.392;2023-07-16T03:48:15;8.151999;;;3.115999;;
59986;SDS011;46181;51.498;5.392;2023-07-16T03:52:45;7.68;;;2.824;;
59986;SDS011;46181;51.498;5.392;2023-07-16T03:57:15;8.664;;;2.944;;
59986;SDS011;46181;51.498;5.392;2023-07-16T04:01:45;7.432001;;;2.996;;
59986;SDS011;46181;51.498;5.392;2023-07-16T04:06:15;8.928001;;;3.3;;
59986;SDS011;46181;51.498;5.392;2023-07-16T04:10:45;11.884;;;2.764;;
59986;SDS011;46181;51.498;5.392;2023-07-16T04:15:15;9.091999;;;3.136001;;
59986;SDS011;46181;51.498;5.392;2023-07-16T04:19:45;8.724;;;3.196001;;
59986;SDS011;46181;51.498;5.392;2023-07-16T04:24:15;8.575999;;;3.400001;;
59986;SDS011;46181;51.498;5.392;2023-07-16T04:28:45;8.44;;;2.992;;
59986;SDS011;46181;51.498;5.392;2023-07-16T04:33:15;8.992001;;;3.207999;;
59986;SDS011;46181;51.498;5.392;2023-07-16T04:37:45;9.18;;;4.064;;
59986;SDS011;46181;51.498;5.392;2023-07-16T04:42:15;6.836;;;3.372;;
59986;SDS011;46181;51.498;5.392;2023-07-16T04:46:45;7.372;;;3.103999;;
59986;SDS011;46181;51.498;5.392;2023-07-16T04:51:15;8.940002;;;3.296;;
59986;SDS011;46181;51.498;5.392;2023-07-16T04:55:45;12.992;;;4.059999;;
59986;SDS011;46181;51.498;5.392;2023-07-16T05:00:15;8.516001;;;3.651999;;
59986;SDS011;46181;51.498;5.392;2023-07-16T05:04:45;10.676;;;3.531999;;
59986;SDS011;46181;51.498;5.392;2023-07-16T05:09:15;8.1;;;3.352;;
59986;SDS011;46181;51.498;5.392;2023-07-16T05:13:45;9.955999;;;3.744001;;
59986;SDS011;46181;51.498;5.392;2023-07-16T05:18:15;6.8;;;3.408;;
59986;SDS011;46181;51.498;5.392;2023-07-16T05:22:45;9.3;;;3.82;;
59986;SDS011;46181;51.498;5.392;2023-07-16T05:27:15;7.016;;;3.947999;;
59986;SDS011;46181;51.498;5.392;2023-07-16T05:31:46;9.748;;;3.868001;;
59986;SDS011;46181;51.498;5.392;2023-07-16T05:36:15;11.244;;;3.971999;;
59986;SDS011;46181;51.498;5.392;2023-07-16T05:40:45;9.82;;;4.02;;
59986;SDS011;46181;51.498;5.392;2023-07-16T05:45:15;9.844;;;4.324001;;
59986;SDS011;46181;51.498;5.392;2023-07-16T05:49:45;9.915999;;;3.631999;;
59986;SDS011;46181;51.498;5.392;2023-07-16T05:54:15;8.759998;;;4.071999;;
59986;SDS011;46181;51.498;5.392;2023-07-16T05:58:45;9.243999;;;3.736001;;
59986;SDS011;46181;51.498;5.392;2023-07-16T06:03:15;9.56;;;4.284;;
59986;SDS011;46181;51.498;5.392;2023-07-16T06:07:45;13.136;;;4.528;;
59986;SDS011;46181;51.498;5.392;2023-07-16T06:12:15;9.468;;;3.996;;
59986;SDS011;46181;51.498;5.392;2023-07-16T06:16:45;9.824001;;;4.063999;;
59986;SDS011;46181;51.498;5.392;2023-07-16T06:21:15;8.724;;;4.043999;;
59986;SDS011;46181;51.498;5.392;2023-07-16T06:25:45;9.212001;;;4.280001;;
59986;SDS011;46181;51.498;5.392;2023-07-16T06:30:15;8.712;;;3.852;;
59986;SDS011;46181;51.498;5.392;2023-07-16T06:34:45;10.384;;;4;;
59986;SDS011;46181;51.498;5.392;2023-07-16T06:39:15;9.704001;;;4.304001;;
59986;SDS011;46181;51.498;5.392;2023-07-16T06:43:45;10.928;;;4.547999;;
59986;SDS011;46181;51.498;5.392;2023-07-16T06:48:15;10.816;;;4.087999;;
59986;SDS011;46181;51.498;5.392;2023-07-16T06:52:45;24.064;;;10.432;;
59986;SDS011;46181;51.498;5.392;2023-07-16T06:57:15;9.256;;;4.496;;
59986;SDS011;46181;51.498;5.392;2023-07-16T07:01:45;36.352;;;20.284;;
59986;SDS011;46181;51.498;5.392;2023-07-16T07:06:15;12.192;;;4.256001;;
59986;SDS011;46181;51.498;5.392;2023-07-16T07:10:45;10.396;;;4.58;;
59986;SDS011;46181;51.498;5.392;2023-07-16T07:15:15;8.379999;;;4.188001;;
59986;SDS011;46181;51.498;5.392;2023-07-16T07:19:45;11.916;;;5.103999;;
59986;SDS011;46181;51.498;5.392;2023-07-16T07:24:15;9.668;;;4.156001;;
59986;SDS011;46181;51.498;5.392;2023-07-16T07:28:45;9.608;;;4.159999;;
59986;SDS011;46181;51.498;5.392;2023-07-16T07:33:15;9.628;;;4.42;;
59986;SDS011;46181;51.498;5.392;2023-07-16T07:37:45;9.36;;;4.336;;
59986;SDS011;46181;51.498;5.392;2023-07-16T07:42:15;8.563999;;;4.26;;
59986;SDS011;46181;51.498;5.392;2023-07-16T07:46:45;10.368;;;4.976;;
59986;SDS011;46181;51.498;5.392;2023-07-16T07:51:15;9.495999;;;4.16;;
59986;SDS011;46181;51.498;5.392;2023-07-16T07:55:45;9.452;;;4.320001;;
59986;SDS011;46181;51.498;5.392;2023-07-16T08:00:15;10.32;;;4.107999;;
59986;SDS011;46181;51.498;5.392;2023-07-16T08:04:45;9.328;;;4.02;;
59986;SDS011;46181;51.498;5.392;2023-07-16T08:09:15;11.224;;;4.208;;
59986;SDS011;46181;51.498;5.392;2023-07-16T08:13:45;10.608;;;3.928;;
59986;SDS011;46181;51.498;5.392;2023-07-16T08:18:15;8.080001;;;3.511999;;
59986;SDS011;46181;51.498;5.392;2023-07-16T08:22:45;8.28;;;3.896001;;
59986;SDS011;46181;51.498;5.392;2023-07-16T08:27:15;8.596001;;;3.956;;
59986;SDS011;46181;51.498;5.392;2023-07-16T08:31:45;7.683999;;;3.576;;
59986;SDS011;46181;51.498;5.392;2023-07-16T08:36:15;9.451999;;;3.96;;
59986;SDS011;46181;51.498;5.392;2023-07-16T08:40:45;9.064;;;3.968;;
59986;SDS011;46181;51.498;5.392;2023-07-16T08:45:15;10.296;;;3.848;;
59986;SDS011;46181;51.498;5.392;2023-07-16T08:49:47;8.476;;;3.664;;
59986;SDS011;46181;51.498;5.392;2023-07-16T08:54:15;9.18;;;3.599999;;
59986;SDS011;46181;51.498;5.392;2023-07-16T08:58:45;7.975999;;;3.888001;;
59986;SDS011;46181;51.498;5.392;2023-07-16T09:03:15;7.220001;;;3.344;;
59986;SDS011;46181;51.498;5.392;2023-07-16T09:07:45;8.212002;;;3.436;;
59986;SDS011;46181;51.498;5.392;2023-07-16T09:12:15;7.988;;;3.316;;
59986;SDS011;46181;51.498;5.392;2023-07-16T09:16:46;8.547999;;;3.668;;
59986;SDS011;46181;51.498;5.392;2023-07-16T09:21:15;7.66;;;3.039999;;
59986;SDS011;46181;51.498;5.392;2023-07-16T09:25:45;8.016001;;;3.308001;;
59986;SDS011;46181;51.498;5.392;2023-07-16T09:30:18;7.943999;;;3.547999;;
59986;SDS011;46181;51.498;5.392;2023-07-16T09:34:48;8.196001;;;3.376;;
59986;SDS011;46181;51.498;5.392;2023-07-16T09:39:15;8.700001;;;3.615999;;
59986;SDS011;46181;51.498;5.392;2023-07-16T09:43:45;7.5;;;3.352001;;
59986;SDS011;46181;51.498;5.392;2023-07-16T09:48:15;8.819999;;;3.616;;
59986;SDS011;46181;51.498;5.392;2023-07-16T09:52:45;6.903999;;;2.916;;
59986;SDS011;46181;51.498;5.392;2023-07-16T09:57:15;8.876001;;;3.267999;;
59986;SDS011;46181;51.498;5.392;2023-07-16T10:01:45;7.444001;;;3.144;;
59986;SDS011;46181;51.498;5.392;2023-07-16T10:06:15;7.579999;;;3.204001;;
59986;SDS011;46181;51.498;5.392;2023-07-16T10:10:46;8.619999;;;3.5;;
59986;SDS011;46181;51.498;5.392;2023-07-16T10:15:24;7.839999;;;3.632;;
59986;SDS011;46181;51.498;5.392;2023-07-16T10:19:55;5.984;;;3.356;;
59986;SDS011;46181;51.498;5.392;2023-07-16T10:24:19;6.82;;;3.272;;
59986;SDS011;46181;51.498;5.392;2023-07-16T10:28:45;8.424;;;3.376001;;
59986;SDS011;46181;51.498;5.392;2023-07-16T10:33:15;7.452;;;3.380001;;
59986;SDS011;46181;51.498;5.392;2023-07-16T10:37:45;8.431999;;;3.532;;
59986;SDS011;46181;51.498;5.392;2023-07-16T10:42:15;6.543999;;;3.1;;
59986;SDS011;46181;51.498;5.392;2023-07-16T10:46:45;8.684;;;3.016;;
59986;SDS011;46181;51.498;5.392;2023-07-16T10:51:17;5.804001;;;2.88;;
59986;SDS011;46181;51.498;5.392;2023-07-16T10:55:45;7.048;;;3.188;;
59986;SDS011;46181;51.498;5.392;2023-07-16T11:00:16;7.12;;;2.932;;
59986;SDS011;46181;51.498;5.392;2023-07-16T11:04:46;6.980001;;;3.008;;
59986;SDS011;46181;51.498;5.392;2023-07-16T11:09:15;7.307999;;;3.139999;;
59986;SDS011;46181;51.498;5.392;2023-07-16T11:13:45;6.484;;;3.016;;
59986;SDS011;46181;51.498;5.392;2023-07-16T11:18:15;6.824001;;;3.608;;
59986;SDS011;46181;51.498;5.392;2023-07-16T11:22:46;7.368;;;3.475999;;
59986;SDS011;46181;51.498;5.392;2023-07-16T11:27:19;6.964;;;3.224;;
59986;SDS011;46181;51.498;5.392;2023-07-16T11:31:45;9.063999;;;3.312001;;
59986;SDS011;46181;51.498;5.392;2023-07-16T11:36:16;6.772;;;3.264001;;
59986;SDS011;46181;51.498;5.392;2023-07-16T11:40:45;8.088;;;3.348;;
59986;SDS011;46181;51.498;5.392;2023-07-16T11:45:19;6.972002;;;3.3;;
59986;SDS011;46181;51.498;5.392;2023-07-16T11:49:45;7.924;;;3.619999;;
59986;SDS011;46181;51.498;5.392;2023-07-16T11:54:15;7.524;;;3.516;;
59986;SDS011;46181;51.498;5.392;2023-07-16T11:58:45;6.28;;;3.168001;;
59986;SDS011;46181;51.498;5.392;2023-07-16T12:03:15;9.095999;;;3.7;;
59986;SDS011;46181;51.498;5.392;2023-07-16T12:07:45;7.776;;;3.196001;;
59986;SDS011;46181;51.498;5.392;2023-07-16T12:12:15;7.204;;;3.308;;
59986;SDS011;46181;51.498;5.392;2023-07-16T12:16:45;7.131999;;;3.288;;
59986;SDS011;46181;51.498;5.392;2023-07-16T12:21:15;7.952001;;;3.388;;
59986;SDS011;46181;51.498;5.392;2023-07-16T12:25:45;7.804;;;3.727999;;
59986;SDS011;46181;51.498;5.392;2023-07-16T12:30:15;8.436001;;;3.659999;;
59986;SDS011;46181;51.498;5.392;2023-07-16T12:34:45;9.332;;;4.424;;
59986;SDS011;46181;51.498;5.392;2023-07-16T12:39:15;8.344;;;3.688;;
59986;SDS011;46181;51.498;5.392;2023-07-16T12:43:45;8.144;;;3.744;;
59986;SDS011;46181;51.498;5.392;2023-07-16T12:48:15;8.099999;;;3.664;;
59986;SDS011;46181;51.498;5.392;2023-07-16T12:52:45;7.512;;;3.3;;
59986;SDS011;46181;51.498;5.392;2023-07-16T12:57:16;6.132;;;3.204;;
59986;SDS011;46181;51.498;5.392;2023-07-16T13:01:45;8.371999;;;3.104;;
59986;SDS011;46181;51.498;5.392;2023-07-16T13:06:15;6.428;;;2.956;;
59986;SDS011;46181;51.498;5.392;2023-07-16T13:10:45;5.667999;;;2.804;;
59986;SDS011;46181;51.498;5.392;2023-07-16T13:15:15;5.344;;;1.936;;
59986;SDS011;46181;51.498;5.392;2023-07-16T13:19:45;5.763999;;;2.024;;
59986;SDS011;46181;51.498;5.392;2023-07-16T13:24:15;6.131999;;;2.276;;
59986;SDS011;46181;51.498;5.392;2023-07-16T13:28:45;5.784;;;2.208;;
59986;SDS011;46181;51.498;5.392;2023-07-16T13:33:15;6.06;;;2.124;;
59986;SDS011;46181;51.498;5.392;2023-07-16T13:37:45;5.056;;;2.132;;
59986;SDS011;46181;51.498;5.392;2023-07-16T13:42:15;5.559999;;;1.968001;;
59986;SDS011;46181;51.498;5.392;2023-07-16T13:46:45;4.856;;;2.148;;
59986;SDS011;46181;51.498;5.392;2023-07-16T13:51:15;5.196;;;2.063999;;
59986;SDS011;46181;51.498;5.392;2023-07-16T13:55:45;4.932;;;2.476001;;
59986;SDS011;46181;51.498;5.392;2023-07-16T14:00:16;5.251999;;;2.392;;
59986;SDS011;46181;51.498;5.392;2023-07-16T14:04:45;5.16;;;2.168;;
59986;SDS011;46181;51.498;5.392;2023-07-16T14:09:15;5.707999;;;2.644;;
59986;SDS011;46181;51.498;5.392;2023-07-16T14:13:45;7.092;;;2.563999;;
59986;SDS011;46181;51.498;5.392;2023-07-16T14:18:15;5.655999;;;2.608;;
59986;SDS011;46181;51.498;5.392;2023-07-16T14:22:45;5.283999;;;2.42;;
59986;SDS011;46181;51.498;5.392;2023-07-16T14:27:15;6.592001;;;2.772;;
59986;SDS011;46181;51.498;5.392;2023-07-16T14:31:45;6.956;;;2.524;;
59986;SDS011;46181;51.498;5.392;2023-07-16T14:36:15;5.567999;;;2.592;;
59986;SDS011;46181;51.498;5.392;2023-07-16T14:40:45;10.36;;;6.791999;;
59986;SDS011;46181;51.498;5.392;2023-07-16T14:45:15;6.336;;;2.392;;
59986;SDS011;46181;51.498;5.392;2023-07-16T14:49:45;5.264;;;1.924;;
59986;SDS011;46181;51.498;5.392;2023-07-16T14:54:15;6.260001;;;2.052;;
59986;SDS011;46181;51.498;5.392;2023-07-16T14:58:45;6.292;;;1.9;;
59986;SDS011;46181;51.498;5.392;2023-07-16T15:03:15;7.260001;;;2.252;;
59986;SDS011;46181;51.498;5.392;2023-07-16T15:07:45;5.912001;;;2.008;;
59986;SDS011;46181;51.498;5.392;2023-07-16T15:12:15;8.304001;;;2.316;;
59986;SDS011;46181;51.498;5.392;2023-07-16T15:16:45;6.131999;;;2.124;;
59986;SDS011;46181;51.498;5.392;2023-07-16T15:21:15;5.224001;;;2.34;;
59986;SDS011;46181;51.498;5.392;2023-07-16T15:25:45;6.016;;;2.216;;
59986;SDS011;46181;51.498;5.392;2023-07-16T15:30:15;8.535998;;;2.068;;
59986;SDS011;46181;51.498;5.392;2023-07-16T15:34:45;6.620001;;;1.768;;
59986;SDS011;46181;51.498;5.392;2023-07-16T15:39:15;7.344;;;2.344;;
59986;SDS011;46181;51.498;5.392;2023-07-16T15:43:45;7.128;;;2.352;;
59986;SDS011;46181;51.498;5.392;2023-07-16T15:48:15;4.508;;;1.708;;
59986;SDS011;46181;51.498;5.392;2023-07-16T15:52:45;4.352001;;;1.664;;
59986;SDS011;46181;51.498;5.392;2023-07-16T15:57:15;3.695999;;;1.676;;
59986;SDS011;46181;51.498;5.392;2023-07-16T16:01:45;4.92;;;1.808;;
59986;SDS011;46181;51.498;5.392;2023-07-16T16:06:15;3.704;;;1.656;;
59986;SDS011;46181;51.498;5.392;2023-07-16T16:10:46;4.604001;;;1.616;;
59986;SDS011;46181;51.498;5.392;2023-07-16T16:15:15;4.24;;;1.624;;
59986;SDS011;46181;51.498;5.392;2023-07-16T16:19:45;6.156;;;1.968;;
59986;SDS011;46181;51.498;5.392;2023-07-16T16:24:15;4.428;;;2.112;;
59986;SDS011;46181;51.498;5.392;2023-07-16T16:28:45;6.704;;;1.696;;
59986;SDS011;46181;51.498;5.392;2023-07-16T16:33:15;3.668;;;1.392;;
59986;SDS011;46181;51.498;5.392;2023-07-16T16:37:45;4.916001;;;1.672;;
59986;SDS011;46181;51.498;5.392;2023-07-16T16:42:15;4.896;;;1.776;;
59986;SDS011;46181;51.498;5.392;2023-07-16T16:46:45;9.640001;;;5.731999;;
59986;SDS011;46181;51.498;5.392;2023-07-16T16:51:15;10.4;;;5.168;;
59986;SDS011;46181;51.498;5.392;2023-07-16T16:55:45;6.296;;;3.892001;;
59986;SDS011;46181;51.498;5.392;2023-07-16T17:00:16;3.752;;;1.76;;
59986;SDS011;46181;51.498;5.392;2023-07-16T17:04:45;5.372;;;2.052;;
59986;SDS011;46181;51.498;5.392;2023-07-16T17:09:15;3.352;;;1.628;;
59986;SDS011;46181;51.498;5.392;2023-07-16T17:13:45;3.875999;;;1.436;;
59986;SDS011;46181;51.498;5.392;2023-07-16T17:18:15;5.176;;;1.776;;
59986;SDS011;46181;51.498;5.392;2023-07-16T17:22:45;3.432001;;;1.448;;
59986;SDS011;46181;51.498;5.392;2023-07-16T17:27:15;6.052001;;;1.324;;
59986;SDS011;46181;51.498;5.392;2023-07-16T17:31:46;3.144;;;1.3;;
59986;SDS011;46181;51.498;5.392;2023-07-16T17:36:15;3.272;;;1.444;;
59986;SDS011;46181;51.498;5.392;2023-07-16T17:40:45;4.448;;;1.932;;
59986;SDS011;46181;51.498;5.392;2023-07-16T17:45:15;3.608;;;1.28;;
59986;SDS011;46181;51.498;5.392;2023-07-16T17:49:45;2.784;;;1;;
59986;SDS011;46181;51.498;5.392;2023-07-16T17:54:16;3.844001;;;1.872;;
59986;SDS011;46181;51.498;5.392;2023-07-16T17:58:45;3.14;;;1.096;;
59986;SDS011;46181;51.498;5.392;2023-07-16T18:03:15;3.56;;;1.136;;
59986;SDS011;46181;51.498;5.392;2023-07-16T18:07:45;2.671999;;;1;;
59986;SDS011;46181;51.498;5.392;2023-07-16T18:12:15;3.132;;;1.152;;
59986;SDS011;46181;51.498;5.392;2023-07-16T18:16:45;4.296;;;1.256;;
59986;SDS011;46181;51.498;5.392;2023-07-16T18:21:15;2.252;;;1.004;;
59986;SDS011;46181;51.498;5.392;2023-07-16T18:25:47;2.844;;;0.916;;
59986;SDS011;46181;51.498;5.392;2023-07-16T18:30:16;4.224;;;1.084;;
59986;SDS011;46181;51.498;5.392;2023-07-16T18:34:45;3.223999;;;1.032;;
59986;SDS011;46181;51.498;5.392;2023-07-16T18:39:15;2.7;;;1.064;;
59986;SDS011;46181;51.498;5.392;2023-07-16T18:43:45;2.892;;;0.924;;
59986;SDS011;46181;51.498;5.392;2023-07-16T18:48:15;2.828;;;1.2;;
59986;SDS011;46181;51.498;5.392;2023-07-16T18:52:45;4.256001;;;1.088;;
59986;SDS011;46181;51.498;5.392;2023-07-16T18:57:15;2.864;;;1.292;;
59986;SDS011;46181;51.498;5.392;2023-07-16T19:01:45;2.94;;;1.112;;
59986;SDS011;46181;51.498;5.392;2023-07-16T19:06:16;4.256001;;;1.024;;
59986;SDS011;46181;51.498;5.392;2023-07-16T19:10:46;2.436;;;0.948;;
59986;SDS011;46181;51.498;5.392;2023-07-16T19:15:16;4.308001;;;1.408;;
59986;SDS011;46181;51.498;5.392;2023-07-16T19:19:46;2.583999;;;1.188;;
59986;SDS011;46181;51.498;5.392;2023-07-16T19:24:15;5.984;;;1.232;;
59986;SDS011;46181;51.498;5.392;2023-07-16T19:28:46;4.244;;;1.2;;
59986;SDS011;46181;51.498;5.392;2023-07-16T19:33:15;3.012001;;;1.072;;
59986;SDS011;46181;51.498;5.392;2023-07-16T19:37:45;3.436001;;;1.376;;
59986;SDS011;46181;51.498;5.392;2023-07-16T19:42:15;3.512;;;1.368;;
59986;SDS011;46181;51.498;5.392;2023-07-16T19:46:45;3.115999;;;1.348;;
59986;SDS011;46181;51.498;5.392;2023-07-16T19:51:15;5.56;;;1.588;;
59986;SDS011;46181;51.498;5.392;2023-07-16T19:55:45;3.516;;;1.556;;
59986;SDS011;46181;51.498;5.392;2023-07-16T20:00:16;6.788;;;2.088;;
59986;SDS011;46181;51.498;5.392;2023-07-16T20:04:45;6.044;;;2.412001;;
59986;SDS011;46181;51.498;5.392;2023-07-16T20:09:15;5.083999;;;2.232;;
59986;SDS011;46181;51.498;5.392;2023-07-16T20:13:46;4.596001;;;2.132;;
59986;SDS011;46181;51.498;5.392;2023-07-16T20:18:16;5.484;;;2.452;;
59986;SDS011;46181;51.498;5.392;2023-07-16T20:22:45;4.811999;;;2.32;;
59986;SDS011;46181;51.498;5.392;2023-07-16T20:27:16;5.124;;;2.492;;
59986;SDS011;46181;51.498;5.392;2023-07-16T20:31:45;6.392;;;2.352;;
59986;SDS011;46181;51.498;5.392;2023-07-16T20:36:16;5.016;;;1.832;;
59986;SDS011;46181;51.498;5.392;2023-07-16T20:40:46;4.916;;;2.264;;
59986;SDS011;46181;51.498;5.392;2023-07-16T20:45:17;5.156;;;1.984;;
59986;SDS011;46181;51.498;5.392;2023-07-16T20:49:46;7.271999;;;2.248;;
59986;SDS011;46181;51.498;5.392;2023-07-16T20:54:16;4.816;;;2.004;;
59986;SDS011;46181;51.498;5.392;2023-07-16T20:58:45;8.528001;;;2.332;;
59986;SDS011;46181;51.498;5.392;2023-07-16T21:03:15;5.624;;;2.1;;
59986;SDS011;46181;51.498;5.392;2023-07-16T21:07:46;4.736;;;1.948;;
59986;SDS011;46181;51.498;5.392;2023-07-16T21:12:16;4.860001;;;1.916;;
59986;SDS011;46181;51.498;5.392;2023-07-16T21:16:46;4.856;;;2.124;;
59986;SDS011;46181;51.498;5.392;2023-07-16T21:21:16;5.944;;;2.356;;
59986;SDS011;46181;51.498;5.392;2023-07-16T21:25:46;5.016;;;2.008;;
59986;SDS011;46181;51.498;5.392;2023-07-16T21:30:16;4.900001;;;2.432;;
59986;SDS011;46181;51.498;5.392;2023-07-16T21:34:45;4.560001;;;2.032;;
59986;SDS011;46181;51.498;5.392;2023-07-16T21:39:16;7.655999;;;2.764;;
59986;SDS011;46181;51.498;5.392;2023-07-16T21:43:46;7.864001;;;3.996;;
59986;SDS011;46181;51.498;5.392;2023-07-16T21:48:16;6.659999;;;3.2;;
59986;SDS011;46181;51.498;5.392;2023-07-16T21:52:46;8.123999;;;2.936001;;
59986;SDS011;46181;51.498;5.392;2023-07-16T21:57:16;4.276;;;2.396;;
59986;SDS011;46181;51.498;5.392;2023-07-16T22:01:46;5.408;;;2.272;;
59986;SDS011;46181;51.498;5.392;2023-07-16T22:06:16;6.064;;;2.384;;
59986;SDS011;46181;51.498;5.392;2023-07-16T22:10:46;5.752;;;2.488;;
59986;SDS011;46181;51.498;5.392;2023-07-16T22:15:16;5.572001;;;2.68;;
59986;SDS011;46181;51.498;5.392;2023-07-16T22:19:46;6.988;;;2.84;;
59986;SDS011;46181;51.498;5.392;2023-07-16T22:24:16;5.199999;;;2.536;;
59986;SDS011;46181;51.498;5.392;2023-07-16T22:28:46;6.652001;;;2.88;;
59986;SDS011;46181;51.498;5.392;2023-07-16T22:33:16;6.840001;;;2.724;;
59986;SDS011;46181;51.498;5.392;2023-07-16T22:37:46;6.084;;;2.612;;
59986;SDS011;46181;51.498;5.392;2023-07-16T22:42:16;7.576001;;;2.616;;
59986;SDS011;46181;51.498;5.392;2023-07-16T22:46:46;5.900001;;;2.636;;
59986;SDS011;46181;51.498;5.392;2023-07-16T22:51:16;6.544;;;2.599999;;
59986;SDS011;46181;51.498;5.392;2023-07-16T22:55:46;4.432001;;;2.319999;;
59986;SDS011;46181;51.498;5.392;2023-07-16T23:00:16;6.392;;;2.264;;
59986;SDS011;46181;51.498;5.392;2023-07-16T23:04:46;5.859999;;;2.296;;
59986;SDS011;46181;51.498;5.392;2023-07-16T23:09:16;5.96;;;2.108;;
59986;SDS011;46181;51.498;5.392;2023-07-16T23:13:46;4.235999;;;1.848;;
59986;SDS011;46181;51.498;5.392;2023-07-16T23:18:16;4.140001;;;2.039999;;
59986;SDS011;46181;51.498;5.392;2023-07-16T23:22:46;3.788;;;2.404;;
59986;SDS011;46181;51.498;5.392;2023-07-16T23:27:16;4.792;;;2.124;;
59986;SDS011;46181;51.498;5.392;2023-07-16T23:31:46;5.632;;;2.52;;
59986;SDS011;46181;51.498;5.392;2023-07-16T23:36:16;5.799999;;;2.284;;
59986;SDS011;46181;51.498;5.392;2023-07-16T23:40:46;6.556;;;2.296;;
59986;SDS011;46181;51.498;5.392;2023-07-16T23:45:16;3.935999;;;1.86;;
59986;SDS011;46181;51.498;5.392;2023-07-16T23:49:46;6.500001;;;2.208;;
59986;SDS011;46181;51.498;5.392;2023-07-16T23:54:16;6.832;;;2.552;;
59986;SDS011;46181;51.498;5.392;2023-07-16T23:58:47;5.292;;;2.544;;
